sensor_id;sensor_type;location;lat;lon;timestamp;pressure;altitude;pressure_sealevel;temperature;humidity
51449;BME280;37520;46.570;14.268;2022-08-03T00:08:06;96064.44;;;16.37;91.52
51449;BME280;37520;46.570;14.268;2022-08-03T00:18:08;96057.78;;;16.29;91.45
51449;BME280;37520;46.570;14.268;2022-08-03T00:28:09;96048.72;;;16.20;92.70
51449;BME280;37520;46.570;14.268;2022-08-03T00:38:10;96056.47;;;16.11;92.69
51449;BME280;37520;46.570;14.268;2022-08-03T00:48:12;96057.03;;;16.03;92.19
51449;BME280;37520;46.570;14.268;2022-08-03T00:58:13;96056.22;;;15.92;92.30
51449;BME280;37520;46.570;14.268;2022-08-03T01:19:34;96069.75;;;15.80;93.33
51449;BME280;37520;46.570;14.268;2022-08-03T01:30:03;96063.88;;;15.68;93.13
51449;BME280;37520;46.570;14.268;2022-08-03T01:40:06;96062.03;;;15.63;94.36
51449;BME280;37520;46.570;14.268;2022-08-03T01:50:11;96058.00;;;15.55;93.09
51449;BME280;37520;46.570;14.268;2022-08-03T02:00:13;96059.59;;;15.46;93.06
51449;BME280;37520;46.570;14.268;2022-08-03T02:10:19;96057.44;;;15.38;94.13
51449;BME280;37520;46.570;14.268;2022-08-03T02:20:21;96054.22;;;15.30;93.65
51449;BME280;37520;46.570;14.268;2022-08-03T02:30:30;96053.41;;;15.25;94.50
51449;BME280;37520;46.570;14.268;2022-08-03T02:40:33;96045.13;;;15.16;94.24
51449;BME280;37520;46.570;14.268;2022-08-03T02:50:36;96044.84;;;15.12;95.54
51449;BME280;37520;46.570;14.268;2022-08-03T03:00:39;96046.69;;;15.07;94.46
51449;BME280;37520;46.570;14.268;2022-08-03T03:10:42;96039.75;;;15.01;94.54
51449;BME280;37520;46.570;14.268;2022-08-03T03:20:44;96043.16;;;14.91;95.32
51449;BME280;37520;46.570;14.268;2022-08-03T03:30:47;96048.47;;;14.86;93.75
51449;BME280;37520;46.570;14.268;2022-08-03T03:40:48;96047.13;;;14.83;94.87
51449;BME280;37520;46.570;14.268;2022-08-03T03:50:50;96058.03;;;14.76;95.16
51449;BME280;37520;46.570;14.268;2022-08-03T04:00:51;96063.06;;;14.73;94.43
51449;BME280;37520;46.570;14.268;2022-08-03T04:21:03;96083.25;;;14.69;95.65
51449;BME280;37520;46.570;14.268;2022-08-03T04:31:07;96085.41;;;14.72;96.25
51449;BME280;37520;46.570;14.268;2022-08-03T04:41:09;96097.38;;;14.74;95.95
51449;BME280;37520;46.570;14.268;2022-08-03T04:51:11;96104.06;;;14.82;96.19
51449;BME280;37520;46.570;14.268;2022-08-03T05:01:14;96109.50;;;14.97;97.37
51449;BME280;37520;46.570;14.268;2022-08-03T05:11:16;96118.09;;;15.15;100.00
51449;BME280;37520;46.570;14.268;2022-08-03T05:21:17;96112.47;;;15.85;99.27
51449;BME280;37520;46.570;14.268;2022-08-03T05:31:19;96113.25;;;16.73;99.91
51449;BME280;37520;46.570;14.268;2022-08-03T05:41:20;96116.66;;;17.65;96.32
51449;BME280;37520;46.570;14.268;2022-08-03T05:51:21;96114.31;;;18.38;90.38
51449;BME280;37520;46.570;14.268;2022-08-03T06:01:22;96113.28;;;19.17;84.70
51449;BME280;37520;46.570;14.268;2022-08-03T06:11:24;96102.44;;;19.90;81.68
51449;BME280;37520;46.570;14.268;2022-08-03T06:21:25;96106.13;;;20.46;76.37
51449;BME280;37520;46.570;14.268;2022-08-03T06:31:27;96094.00;;;20.96;73.36
51449;BME280;37520;46.570;14.268;2022-08-03T06:41:29;96110.09;;;21.51;71.47
51449;BME280;37520;46.570;14.268;2022-08-03T06:51:32;96111.78;;;21.98;67.55
51449;BME280;37520;46.570;14.268;2022-08-03T07:01:33;96109.13;;;22.43;66.65
51449;BME280;37520;46.570;14.268;2022-08-03T07:11:35;96109.16;;;22.75;63.88
51449;BME280;37520;46.570;14.268;2022-08-03T07:21:36;96103.22;;;23.27;61.39
51449;BME280;37520;46.570;14.268;2022-08-03T07:31:37;96101.06;;;23.73;59.45
51449;BME280;37520;46.570;14.268;2022-08-03T07:41:39;96098.09;;;24.18;59.70
51449;BME280;37520;46.570;14.268;2022-08-03T07:51:40;96092.94;;;24.60;56.59
51449;BME280;37520;46.570;14.268;2022-08-03T08:01:41;96095.34;;;25.31;56.08
51449;BME280;37520;46.570;14.268;2022-08-03T08:11:43;96082.97;;;25.59;53.49
51449;BME280;37520;46.570;14.268;2022-08-03T08:21:44;96088.59;;;25.97;51.94
51449;BME280;37520;46.570;14.268;2022-08-03T08:31:45;96081.41;;;26.34;51.08
51449;BME280;37520;46.570;14.268;2022-08-03T08:41:50;96069.03;;;26.92;49.41
51449;BME280;37520;46.570;14.268;2022-08-03T08:51:53;96063.59;;;26.79;47.79
51449;BME280;37520;46.570;14.268;2022-08-03T09:01:56;96058.84;;;26.76;47.33
51449;BME280;37520;46.570;14.268;2022-08-03T09:11:58;96057.81;;;27.30;45.72
51449;BME280;37520;46.570;14.268;2022-08-03T09:22:14;96041.59;;;27.71;45.74
51449;BME280;37520;46.570;14.268;2022-08-03T09:32:20;96043.25;;;27.88;43.40
51449;BME280;37520;46.570;14.268;2022-08-03T09:42:22;96043.59;;;28.59;42.95
51449;BME280;37520;46.570;14.268;2022-08-03T09:52:30;96031.50;;;28.73;42.93
51449;BME280;37520;46.570;14.268;2022-08-03T10:02:31;96017.28;;;28.79;42.79
51449;BME280;37520;46.570;14.268;2022-08-03T10:12:33;96015.00;;;28.98;42.79
51449;BME280;37520;46.570;14.268;2022-08-03T10:22:35;96006.63;;;29.78;42.11
51449;BME280;37520;46.570;14.268;2022-08-03T10:32:42;95989.13;;;29.98;41.10
51449;BME280;37520;46.570;14.268;2022-08-03T10:42:48;95978.69;;;30.47;40.29
51449;BME280;37520;46.570;14.268;2022-08-03T10:52:58;95966.84;;;30.59;39.71
51449;BME280;37520;46.570;14.268;2022-08-03T11:03:13;95958.81;;;30.96;37.63
51449;BME280;37520;46.570;14.268;2022-08-03T11:13:17;95941.16;;;31.44;37.99
51449;BME280;37520;46.570;14.268;2022-08-03T11:23:39;95933.53;;;31.60;36.56
51449;BME280;37520;46.570;14.268;2022-08-03T11:34:05;95923.47;;;32.02;36.81
51449;BME280;37520;46.570;14.268;2022-08-03T11:44:06;95912.06;;;32.34;37.02
51449;BME280;37520;46.570;14.268;2022-08-03T11:54:08;95910.19;;;32.45;34.78
51449;BME280;37520;46.570;14.268;2022-08-03T12:04:11;95896.47;;;32.42;34.72
51449;BME280;37520;46.570;14.268;2022-08-03T12:14:15;95890.13;;;32.79;35.00
51449;BME280;37520;46.570;14.268;2022-08-03T12:24:17;95874.81;;;32.74;34.19
51449;BME280;37520;46.570;14.268;2022-08-03T12:34:18;95870.72;;;32.46;32.35
51449;BME280;37520;46.570;14.268;2022-08-03T12:44:32;95862.13;;;32.48;34.78
51449;BME280;37520;46.570;14.268;2022-08-03T12:54:34;95855.00;;;32.33;31.49
51449;BME280;37520;46.570;14.268;2022-08-03T13:04:36;95842.56;;;31.94;32.10
51449;BME280;37520;46.570;14.268;2022-08-03T13:14:39;95840.63;;;32.46;30.11
51449;BME280;37520;46.570;14.268;2022-08-03T13:24:43;95813.56;;;31.82;28.13
51449;BME280;37520;46.570;14.268;2022-08-03T13:34:45;95812.41;;;31.83;30.80
51449;BME280;37520;46.570;14.268;2022-08-03T13:44:46;95799.56;;;31.87;33.50
51449;BME280;37520;46.570;14.268;2022-08-03T13:54:48;95802.16;;;31.35;31.52
51449;BME280;37520;46.570;14.268;2022-08-03T14:04:49;95794.06;;;31.46;30.98
51449;BME280;37520;46.570;14.268;2022-08-03T14:14:56;95782.81;;;31.51;30.15
51449;BME280;37520;46.570;14.268;2022-08-03T14:24:58;95786.19;;;31.37;28.91
51449;BME280;37520;46.570;14.268;2022-08-03T14:34:59;95775.47;;;31.21;29.30
51449;BME280;37520;46.570;14.268;2022-08-03T14:45:00;95766.06;;;31.15;30.81
51449;BME280;37520;46.570;14.268;2022-08-03T14:55:02;95757.88;;;31.15;30.24
51449;BME280;37520;46.570;14.268;2022-08-03T15:05:03;95748.56;;;30.85;29.98
51449;BME280;37520;46.570;14.268;2022-08-03T15:15:05;95748.28;;;30.64;29.15
51449;BME280;37520;46.570;14.268;2022-08-03T15:25:08;95736.34;;;30.45;31.41
51449;BME280;37520;46.570;14.268;2022-08-03T15:35:09;95733.63;;;30.18;29.30
51449;BME280;37520;46.570;14.268;2022-08-03T15:45:10;95730.56;;;29.93;29.61
51449;BME280;37520;46.570;14.268;2022-08-03T15:55:12;95722.53;;;29.54;30.96
51449;BME280;37520;46.570;14.268;2022-08-03T16:05:13;95723.69;;;29.30;30.60
51449;BME280;37520;46.570;14.268;2022-08-03T16:15:18;95713.41;;;28.60;38.87
51449;BME280;37520;46.570;14.268;2022-08-03T16:25:19;95706.59;;;27.79;40.88
51449;BME280;37520;46.570;14.268;2022-08-03T16:35:20;95707.47;;;27.19;45.24
51449;BME280;37520;46.570;14.268;2022-08-03T16:45:24;95702.72;;;26.72;46.99
51449;BME280;37520;46.570;14.268;2022-08-03T16:55:25;95693.38;;;26.29;50.75
51449;BME280;37520;46.570;14.268;2022-08-03T17:05:26;95700.75;;;25.91;54.60
51449;BME280;37520;46.570;14.268;2022-08-03T17:15:29;95706.50;;;25.40;57.34
51449;BME280;37520;46.570;14.268;2022-08-03T17:25:31;95707.97;;;24.91;54.73
51449;BME280;37520;46.570;14.268;2022-08-03T17:35:33;95714.06;;;24.46;56.76
51449;BME280;37520;46.570;14.268;2022-08-03T17:45:35;95734.59;;;23.96;56.46
51449;BME280;37520;46.570;14.268;2022-08-03T17:55:39;95732.53;;;23.54;57.38
51449;BME280;37520;46.570;14.268;2022-08-03T18:05:51;95740.28;;;23.17;58.00
51449;BME280;37520;46.570;14.268;2022-08-03T18:16:02;95741.09;;;22.74;59.18
51449;BME280;37520;46.570;14.268;2022-08-03T18:26:08;95744.25;;;22.41;60.99
51449;BME280;37520;46.570;14.268;2022-08-03T18:36:11;95748.94;;;22.09;62.69
51449;BME280;37520;46.570;14.268;2022-08-03T19:06:46;95778.34;;;21.24;64.88
51449;BME280;37520;46.570;14.268;2022-08-03T19:16:53;95794.81;;;21.00;65.67
51449;BME280;37520;46.570;14.268;2022-08-03T19:26:56;95804.94;;;20.81;66.98
51449;BME280;37520;46.570;14.268;2022-08-03T19:36:59;95809.13;;;20.59;67.48
51449;BME280;37520;46.570;14.268;2022-08-03T19:47:15;95821.31;;;20.42;70.76
51449;BME280;37520;46.570;14.268;2022-08-03T19:57:26;95836.06;;;20.31;67.80
51449;BME280;37520;46.570;14.268;2022-08-03T20:07:29;95842.03;;;20.14;70.22
51449;BME280;37520;46.570;14.268;2022-08-03T20:17:32;95844.72;;;20.00;72.01
51449;BME280;37520;46.570;14.268;2022-08-03T20:27:42;95861.28;;;19.88;71.79
51449;BME280;37520;46.570;14.268;2022-08-03T20:37:45;95864.50;;;19.71;72.24
51449;BME280;37520;46.570;14.268;2022-08-03T20:47:46;95852.97;;;19.57;72.75
51449;BME280;37520;46.570;14.268;2022-08-03T20:57:48;95865.84;;;19.41;74.39
51449;BME280;37520;46.570;14.268;2022-08-03T21:07:56;95865.59;;;19.23;74.97
51449;BME280;37520;46.570;14.268;2022-08-03T21:17:59;95868.72;;;19.11;75.67
51449;BME280;37520;46.570;14.268;2022-08-03T21:28:04;95881.25;;;18.97;75.88
51449;BME280;37520;46.570;14.268;2022-08-03T21:38:09;95887.59;;;18.82;76.33
51449;BME280;37520;46.570;14.268;2022-08-03T21:48:23;95893.38;;;18.70;77.40
51449;BME280;37520;46.570;14.268;2022-08-03T21:58:30;95898.44;;;18.52;77.15
51449;BME280;37520;46.570;14.268;2022-08-03T22:08:33;95904.72;;;18.43;78.48
51449;BME280;37520;46.570;14.268;2022-08-03T22:18:36;95921.69;;;18.33;79.50
51449;BME280;37520;46.570;14.268;2022-08-03T22:28:38;95932.78;;;18.21;80.07
51449;BME280;37520;46.570;14.268;2022-08-03T22:38:39;95931.81;;;18.12;81.22
51449;BME280;37520;46.570;14.268;2022-08-03T22:48:41;95934.81;;;18.05;82.33
51449;BME280;37520;46.570;14.268;2022-08-03T22:58:45;95938.91;;;17.97;81.82
51449;BME280;37520;46.570;14.268;2022-08-03T23:08:48;95936.31;;;17.87;82.47
51449;BME280;37520;46.570;14.268;2022-08-03T23:18:51;95939.03;;;17.77;83.74
51449;BME280;37520;46.570;14.268;2022-08-03T23:28:53;95943.66;;;17.71;83.30
51449;BME280;37520;46.570;14.268;2022-08-03T23:38:55;95939.97;;;17.62;83.99
51449;BME280;37520;46.570;14.268;2022-08-03T23:48:57;95947.81;;;17.53;84.41
